Time,TemperatureF,DewpointF,PressureIn,WindDirection,WindDirectionDegrees,WindSpeedMPH,WindSpeedGustMPH,Humidity,HourlyPrecipIn,Conditions,Clouds,dailyrainin,SoftwareType,DateUTC
2013-02-07 00:02:00,23.0,18.6,29.99,North,360,2.3,3.5,83,0.00,SCT,,0.00,WeatherDisplay:10.37,2013-02-07 06:02:00,
2013-02-07 00:08:00,23.0,18.6,29.99,North,360,2.2,3.5,83,0.00,SCT,,0.00,WeatherDisplay:10.37,2013-02-07 06:08:00,
2013-02-07 00:13:00,23.0,18.6,30.00,North,360,2.4,3.5,83,0.00,BKN,,0.00,WeatherDisplay:10.37,2013-02-07 06:13:00,
2013-02-07 00:18:00,23.0,18.6,30.00,North,360,2.8,3.5,83,0.00,BKN,,0.00,WeatherDisplay:10.37,2013-02-07 06:18:00,
2013-02-07 00:23:00,23.0,18.6,30.00,North,360,2.9,5.8,83,0.00,BKN,,0.00,WeatherDisplay:10.37,2013-02-07 06:23:00,
2013-02-07 00:28:00,23.0,18.6,30.00,North,360,2.2,2.7,83,0.00,BKN,,0.00,WeatherDisplay:10.37,2013-02-07 06:28:00,
2013-02-07 00:33:00,22.8,18.4,30.00,North,360,3.6,4.6,83,0.00,BKN,,0.00,WeatherDisplay:10.37,2013-02-07 06:33:00,
2013-02-07 00:38:00,22.8,18.4,30.00,North,360,2.6,2.7,83,0.00,BKN,,0.00,WeatherDisplay:10.37,2013-02-07 06:38:00,
2013-02-07 00:43:00,22.8,18.4,30.00,North,360,1.8,3.5,83,0.00,BKN,,0.00,WeatherDisplay:10.37,2013-02-07 06:43:00,
2013-02-07 00:48:00,22.8,18.4,30.00,North,360,4.3,5.3,83,0.00,BKN,,0.00,WeatherDisplay:10.37,2013-02-07 06:48:00,
2013-02-07 00:53:00,22.8,18.4,30.00,North,360,3.4,4.6,83,0.00,BKN,,0.00,WeatherDisplay:10.37,2013-02-07 06:53:00,
2013-02-07 00:59:00,22.8,18.4,30.00,North,360,2.1,3.5,83,0.00,BKN,,0.00,WeatherDisplay:10.37,2013-02-07 06:59:00,
2013-02-07 01:04:00,22.8,18.4,30.00,North,360,3.1,4.6,83,0.00,OVC,,0.00,WeatherDisplay:10.37,2013-02-07 07:04:00,
2013-02-07 01:09:00,22.8,18.4,30.00,North,360,2.2,3.5,83,0.00,OVC,,0.00,WeatherDisplay:10.37,2013-02-07 07:09:00,
2013-02-07 01:14:00,22.8,18.7,30.00,North,360,2.9,5.8,84,0.00,OVC,,0.00,WeatherDisplay:10.37,2013-02-07 07:14:00,
2013-02-07 01:19:00,22.8,18.7,30.00,North,360,1.9,2.3,84,0.00,OVC,,0.00,WeatherDisplay:10.37,2013-02-07 07:19:00,
2013-02-07 01:24:00,22.8,18.7,30.00,North,360,2.8,3.5,84,0.00,OVC,,0.00,WeatherDisplay:10.37,2013-02-07 07:24:00,
2013-02-07 01:29:00,22.8,18.7,30.00,North,360,2.9,3.5,84,0.00,OVC,,0.00,WeatherDisplay:10.37,2013-02-07 07:29:00,
2013-02-07 01:34:00,22.8,18.7,30.00,North,360,3.4,3.5,84,0.00,OVC,,0.00,WeatherDisplay:10.37,2013-02-07 07:34:00,
2013-02-07 01:39:00,22.8,18.7,30.00,North,360,0.2,2.3,84,0.00,OVC,,0.00,WeatherDisplay:10.37,2013-02-07 07:39:00,
2013-02-07 01:44:00,22.8,18.7,30.01,North,360,1.8,2.3,84,0.00,OVC,,0.00,WeatherDisplay:10.37,2013-02-07 07:44:00,
2013-02-07 01:50:00,22.8,18.7,30.01,North,360,3.1,3.5,84,0.00,OVC,,0.00,WeatherDisplay:10.37,2013-02-07 07:50:00,
2013-02-07 01:55:00,22.8,18.7,30.01,North,360,1.6,3.5,84,0.00,OVC,,0.00,WeatherDisplay:10.37,2013-02-07 07:55:00,
2013-02-07 02:00:00,22.8,18.7,30.01,North,360,2.2,3.5,84,0.00,OVC,,0.00,WeatherDisplay:10.37,2013-02-07 08:00:00,
2013-02-07 02:05:00,22.6,18.5,30.01,North,360,3.4,4.6,84,0.00,OVC,,0.00,WeatherDisplay:10.37,2013-02-07 08:05:00,
2013-02-07 02:10:00,22.6,18.5,30.02,North,360,0.0,0.0,84,0.00,OVC,,0.00,WeatherDisplay:10.37,2013-02-07 08:10:00,
2013-02-07 02:15:00,22.6,18.5,30.02,North,360,2.8,3.7,84,0.00,OVC,,0.00,WeatherDisplay:10.37,2013-02-07 08:15:00,
2013-02-07 02:20:00,22.6,18.5,30.02,North,360,2.4,2.7,84,0.00,OVC,,0.00,WeatherDisplay:10.37,2013-02-07 08:20:00,
2013-02-07 02:25:00,22.6,18.5,30.02,NNE,22,2.1,3.2,84,0.00,OVC,,0.00,WeatherDisplay:10.37,2013-02-07 08:25:00,
2013-02-07 02:30:00,22.6,18.8,30.02,East,90,1.8,4.2,85,0.00,OVC,,0.00,WeatherDisplay:10.37,2013-02-07 08:30:00,
2013-02-07 02:35:00,22.6,18.8,30.02,NNE,22,2.3,2.3,85,0.00,OVC,,0.00,WeatherDisplay:10.37,2013-02-07 08:35:00,
2013-02-07 02:41:00,22.6,18.8,30.02,NNE,22,1.6,3.5,85,0.00,OVC,,0.00,WeatherDisplay:10.37,2013-02-07 08:41:00,
2013-02-07 02:46:00,22.6,18.8,30.02,North,360,2.8,3.5,85,0.00,OVC,,0.00,WeatherDisplay:10.37,2013-02-07 08:46:00,
2013-02-07 02:51:00,22.6,18.8,30.02,North,360,1.3,3.5,85,0.00,OVC,,0.00,WeatherDisplay:10.37,2013-02-07 08:51:00,
2013-02-07 02:56:00,22.6,19.0,30.02,North,360,2.9,3.5,86,0.00,OVC,,0.00,WeatherDisplay:10.37,2013-02-07 08:56:00,
2013-02-07 03:01:00,22.6,19.0,30.02,North,360,2.7,2.7,86,0.00,OVC,,0.00,WeatherDisplay:10.37,2013-02-07 09:01:00,
2013-02-07 03:06:00,22.6,19.0,30.02,North,360,2.2,2.7,86,0.00,OVC,,0.00,WeatherDisplay:10.37,2013-02-07 09:06:00,
2013-02-07 03:11:00,22.6,19.0,30.02,North,360,2.9,3.7,86,0.00,OVC,,0.00,WeatherDisplay:10.37,2013-02-07 09:11:00,
2013-02-07 03:16:00,22.6,19.0,30.02,NE,45,4.0,5.8,86,0.00,OVC,,0.00,WeatherDisplay:10.37,2013-02-07 09:16:00,
2013-02-07 03:21:00,22.6,19.3,30.02,North,360,3.5,4.6,87,0.00,OVC,,0.00,WeatherDisplay:10.37,2013-02-07 09:21:00,
2013-02-07 03:26:00,22.6,19.3,30.02,NE,45,4.5,5.8,87,0.00,OVC,,0.00,WeatherDisplay:10.37,2013-02-07 09:26:00,
2013-02-07 03:32:00,22.6,19.6,30.02,ENE,68,3.1,5.3,88,0.00,OVC,,0.00,WeatherDisplay:10.37,2013-02-07 09:32:00,
2013-02-07 03:37:00,22.5,19.5,30.02,NNE,22,2.3,2.3,88,0.00,OVC,,0.00,WeatherDisplay:10.37,2013-02-07 09:37:00,
2013-02-07 03:42:00,22.5,19.5,30.02,NNE,22,2.6,3.5,88,0.00,OVC,,0.00,WeatherDisplay:10.37,2013-02-07 09:42:00,
2013-02-07 03:47:00,22.5,19.7,30.02,NNE,22,2.3,3.5,89,0.00,OVC,,0.00,WeatherDisplay:10.37,2013-02-07 09:47:00,
2013-02-07 03:52:00,22.5,19.7,30.02,NNE,22,2.5,2.5,89,0.00,OVC,,0.00,WeatherDisplay:10.37,2013-02-07 09:52:00,
2013-02-07 03:57:00,22.5,20.0,30.02,ESE,112,2.8,3.5,90,0.00,OVC,,0.00,WeatherDisplay:10.37,2013-02-07 09:57:00,
2013-02-07 04:02:00,22.5,20.0,30.02,NNE,22,3.2,3.5,90,0.00,OVC,,0.00,WeatherDisplay:10.37,2013-02-07 10:02:00,
2013-02-07 04:07:00,22.5,20.0,30.02,NNE,22,3.6,5.8,90,0.00,OVC,,0.00,WeatherDisplay:10.37,2013-02-07 10:07:00,
2013-02-07 04:12:00,22.5,20.0,30.02,NNE,22,2.1,2.7,90,0.00,OVC,,0.00,WeatherDisplay:10.37,2013-02-07 10:12:00,
2013-02-07 04:17:00,22.5,20.3,30.02,ENE,68,4.2,4.7,91,0.00,OVC,,0.00,WeatherDisplay:10.37,2013-02-07 10:17:00,
2013-02-07 04:23:00,22.5,20.3,30.03,NNE,22,2.7,4.6,91,0.00,OVC,,0.00,WeatherDisplay:10.37,2013-02-07 10:23:00,
2013-02-07 04:28:00,22.5,20.3,30.03,NNE,22,2.2,3.5,91,0.00,OVC,,0.00,WeatherDisplay:10.37,2013-02-07 10:28:00,
2013-02-07 04:33:00,22.5,20.3,30.03,North,360,2.3,2.3,91,0.00,OVC,,0.00,WeatherDisplay:10.37,2013-02-07 10:33:00,
2013-02-07 04:38:00,22.5,20.3,30.03,North,360,2.9,3.7,91,0.00,OVC,,0.00,WeatherDisplay:10.37,2013-02-07 10:38:00,
2013-02-07 04:43:00,22.5,20.3,30.03,North,360,2.9,4.6,91,0.00,OVC,,0.00,WeatherDisplay:10.37,2013-02-07 10:43:00,
2013-02-07 04:48:00,22.5,20.3,30.04,North,360,2.1,4.6,91,0.00,OVC,,0.00,WeatherDisplay:10.37,2013-02-07 10:48:00,
2013-02-07 04:53:00,22.5,20.3,30.04,North,360,3.0,3.7,91,0.00,OVC,,0.00,WeatherDisplay:10.37,2013-02-07 10:53:00,
2013-02-07 04:58:00,22.3,20.1,30.04,North,360,3.2,3.5,91,0.00,OVC,,0.00,WeatherDisplay:10.37,2013-02-07 10:58:00,
2013-02-07 05:03:00,22.3,20.1,30.04,North,360,2.5,3.5,91,0.00,OVC,,0.00,WeatherDisplay:10.37,2013-02-07 11:03:00,
2013-02-07 05:08:00,22.3,20.1,30.04,North,360,3.7,4.6,91,0.00,OVC,,0.00,WeatherDisplay:10.37,2013-02-07 11:08:00,
2013-02-07 05:14:00,22.3,20.1,30.04,North,360,5.6,6.9,91,0.00,OVC,,0.00,WeatherDisplay:10.37,2013-02-07 11:14:00,
2013-02-07 05:19:00,22.3,20.1,30.04,NNE,22,3.8,5.8,91,0.00,OVC,,0.00,WeatherDisplay:10.37,2013-02-07 11:19:00,
2013-02-07 05:24:00,22.3,20.1,30.03,NNE,22,1.9,2.3,91,0.00,OVC,,0.00,WeatherDisplay:10.37,2013-02-07 11:24:00,
2013-02-07 05:29:00,22.3,20.1,30.03,NNE,22,2.5,2.7,91,0.00,OVC,,0.00,WeatherDisplay:10.37,2013-02-07 11:29:00,
2013-02-07 05:34:00,22.3,20.3,30.04,NNE,22,2.6,3.5,92,0.00,OVC,,0.00,WeatherDisplay:10.37,2013-02-07 11:34:00,
2013-02-07 05:39:00,22.3,20.3,30.04,NNE,22,1.9,2.3,92,0.00,OVC,,0.00,WeatherDisplay:10.37,2013-02-07 11:39:00,
2013-02-07 05:44:00,22.3,20.3,30.04,NNE,22,3.7,4.6,92,0.00,OVC,,0.00,WeatherDisplay:10.37,2013-02-07 11:44:00,
2013-02-07 05:49:00,22.3,20.3,30.04,NNE,22,2.5,2.5,92,0.00,OVC,,0.00,WeatherDisplay:10.37,2013-02-07 11:49:00,
2013-02-07 05:54:00,22.3,20.3,30.04,North,360,2.3,4.2,92,0.00,OVC,,0.00,WeatherDisplay:10.37,2013-02-07 11:54:00,
2013-02-07 05:59:00,22.3,20.3,30.04,North,360,2.2,3.5,92,0.00,OVC,,0.00,WeatherDisplay:10.37,2013-02-07 11:59:00,
2013-02-07 06:05:00,22.3,20.3,30.04,North,360,2.5,3.5,92,0.00,OVC,,0.00,WeatherDisplay:10.37,2013-02-07 12:05:00,
2013-02-07 06:10:00,22.3,20.3,30.04,North,360,2.2,3.5,92,0.00,OVC,,0.00,WeatherDisplay:10.37,2013-02-07 12:10:00,
2013-02-07 06:15:00,22.3,20.3,30.04,North,360,2.4,4.2,92,0.00,OVC,,0.00,WeatherDisplay:10.37,2013-02-07 12:15:00,
2013-02-07 06:20:00,22.3,20.3,30.05,North,360,2.8,3.5,92,0.00,OVC,,0.00,WeatherDisplay:10.37,2013-02-07 12:20:00,
2013-02-07 06:25:00,22.3,20.3,30.05,North,360,2.6,3.5,92,0.00,OVC,,0.00,WeatherDisplay:10.37,2013-02-07 12:25:00,
2013-02-07 06:30:00,22.3,20.3,30.05,North,360,2.0,3.5,92,0.00,OVC,,0.00,WeatherDisplay:10.37,2013-02-07 12:30:00,
2013-02-07 06:35:00,22.3,20.3,30.04,North,360,2.5,3.5,92,0.00,OVC,,0.00,WeatherDisplay:10.37,2013-02-07 12:35:00,
2013-02-07 06:40:00,22.3,20.3,30.04,North,360,2.6,2.7,92,0.00,OVC,,0.00,WeatherDisplay:10.37,2013-02-07 12:40:00,
2013-02-07 06:45:00,22.3,20.3,30.04,North,360,2.3,3.2,92,0.00,OVC,,0.00,WeatherDisplay:10.37,2013-02-07 12:45:00,
2013-02-07 06:50:00,22.3,20.3,30.04,North,360,4.3,7.8,92,0.00,OVC,,0.00,WeatherDisplay:10.37,2013-02-07 12:50:00,
2013-02-07 06:56:00,22.3,20.3,30.04,NNE,22,2.0,2.7,92,0.00,OVC,,0.00,WeatherDisplay:10.37,2013-02-07 12:56:00,
2013-02-07 07:01:00,22.3,20.3,30.04,NNE,22,2.8,4.6,92,0.00,OVC,,0.00,WeatherDisplay:10.37,2013-02-07 13:01:00,
2013-02-07 07:06:00,22.3,20.3,30.04,NNE,22,3.3,5.8,92,0.00,OVC,,0.00,WeatherDisplay:10.37,2013-02-07 13:06:00,
2013-02-07 07:11:00,22.3,20.3,30.04,NNE,22,2.5,2.5,92,0.00,OVC,,0.00,WeatherDisplay:10.37,2013-02-07 13:11:00,
2013-02-07 07:16:00,22.3,20.3,30.04,NNE,22,2.3,2.3,92,0.00,OVC,,0.00,WeatherDisplay:10.37,2013-02-07 13:16:00,
2013-02-07 07:21:00,22.3,20.3,30.04,East,90,3.4,4.6,92,0.00,OVC,,0.00,WeatherDisplay:10.37,2013-02-07 13:21:00,
2013-02-07 07:26:00,22.3,20.3,30.05,NNE,22,2.8,4.6,92,0.00,OVC,,0.00,WeatherDisplay:10.37,2013-02-07 13:26:00,
2013-02-07 07:31:00,22.3,20.3,30.05,North,360,3.4,4.6,92,0.00,OVC,,0.00,WeatherDisplay:10.37,2013-02-07 13:31:00,
2013-02-07 07:36:00,22.3,20.3,30.06,North,360,2.7,3.5,92,0.00,OVC,,0.00,WeatherDisplay:10.37,2013-02-07 13:36:00,
2013-02-07 07:41:00,22.3,20.3,30.06,NNE,22,3.4,6.8,92,0.00,OVC,,0.00,WeatherDisplay:10.37,2013-02-07 13:41:00,
2013-02-07 07:47:00,22.3,20.1,30.06,North,360,2.6,4.6,91,0.00,OVC,,0.00,WeatherDisplay:10.37,2013-02-07 13:47:00,
2013-02-07 07:52:00,22.3,20.1,30.06,NE,45,4.3,4.7,91,0.00,OVC,,0.00,WeatherDisplay:10.37,2013-02-07 13:52:00,
2013-02-07 07:57:00,22.3,20.1,30.07,ENE,68,1.8,2.3,91,0.00,OVC,,0.00,WeatherDisplay:10.37,2013-02-07 13:57:00,
2013-02-07 08:02:00,22.3,20.1,30.07,NNE,22,1.5,3.5,91,0.00,OVC,,0.00,WeatherDisplay:10.37,2013-02-07 14:02:00,
2013-02-07 08:07:00,22.5,20.3,30.07,North,360,1.8,2.3,91,0.00,OVC,,0.00,WeatherDisplay:10.37,2013-02-07 14:07:00,
2013-02-07 08:12:00,22.5,20.3,30.08,North,360,2.4,4.2,91,0.00,OVC,,0.00,WeatherDisplay:10.37,2013-02-07 14:12:00,
2013-02-07 08:17:00,22.5,20.3,30.08,NNW,338,2.0,2.3,91,0.00,OVC,,0.00,WeatherDisplay:10.37,2013-02-07 14:17:00,
2013-02-07 08:22:00,22.6,20.4,30.08,NNE,22,2.4,3.7,91,0.00,OVC,,0.00,WeatherDisplay:10.37,2013-02-07 14:22:00,
2013-02-07 08:27:00,22.6,20.4,30.08,NNE,22,2.1,2.2,91,0.00,OVC,,0.00,WeatherDisplay:10.37,2013-02-07 14:27:00,
2013-02-07 08:32:00,22.6,20.1,30.08,North,360,2.8,3.5,90,0.00,OVC,,0.00,WeatherDisplay:10.37,2013-02-07 14:32:00,
2013-02-07 08:38:00,22.8,20.3,30.08,North,360,3.3,3.7,90,0.00,OVC,,0.00,WeatherDisplay:10.37,2013-02-07 14:38:00,
2013-02-07 08:43:00,23.0,20.5,30.08,NNE,22,2.6,4.6,90,0.00,OVC,,0.00,WeatherDisplay:10.37,2013-02-07 14:43:00,
2013-02-07 08:48:00,23.0,20.5,30.09,North,360,2.4,2.7,90,0.00,OVC,,0.00,WeatherDisplay:10.37,2013-02-07 14:48:00,
2013-02-07 08:53:00,23.0,20.2,30.09,NE,45,3.9,4.6,89,0.00,OVC,,0.00,WeatherDisplay:10.37,2013-02-07 14:53:00,
2013-02-07 08:58:00,23.2,20.4,30.09,North,360,3.0,4.7,89,0.00,OVC,,0.00,WeatherDisplay:10.37,2013-02-07 14:58:00,
2013-02-07 09:03:00,23.2,20.4,30.09,NNE,22,2.2,2.3,89,0.00,OVC,,0.00,WeatherDisplay:10.37,2013-02-07 15:03:00,
2013-02-07 09:08:00,23.4,20.6,30.09,North,360,2.8,5.8,89,0.00,OVC,,0.00,WeatherDisplay:10.37,2013-02-07 15:08:00,
2013-02-07 09:13:00,23.4,20.6,30.10,North,360,5.0,5.8,89,0.00,OVC,,0.00,WeatherDisplay:10.37,2013-02-07 15:13:00,
2013-02-07 09:18:00,23.4,20.6,30.10,North,360,3.5,4.6,89,0.00,OVC,,0.00,WeatherDisplay:10.37,2013-02-07 15:18:00,
2013-02-07 09:23:00,23.4,20.4,30.10,SE,135,3.8,5.8,88,0.00,OVC,,0.00,WeatherDisplay:10.37,2013-02-07 15:23:00,
2013-02-07 09:29:00,23.5,20.5,30.10,ENE,68,3.5,4.7,88,0.00,OVC,,0.00,WeatherDisplay:10.37,2013-02-07 15:29:00,
2013-02-07 09:34:00,23.5,20.5,30.10,NNE,22,3.7,4.6,88,0.00,OVC,,0.00,WeatherDisplay:10.37,2013-02-07 15:34:00,
2013-02-07 09:39:00,23.7,20.4,30.10,NNE,22,3.1,4.6,87,0.00,OVC,,0.00,WeatherDisplay:10.37,2013-02-07 15:39:00,
2013-02-07 09:44:00,23.9,20.6,30.10,North,360,4.6,5.8,87,0.00,OVC,,0.00,WeatherDisplay:10.37,2013-02-07 15:44:00,
2013-02-07 09:49:00,23.9,20.6,30.10,North,360,2.7,3.5,87,0.00,OVC,,0.00,WeatherDisplay:10.37,2013-02-07 15:49:00,
2013-02-07 09:54:00,24.1,20.5,30.10,North,360,2.4,3.7,86,0.00,OVC,,0.00,WeatherDisplay:10.37,2013-02-07 15:54:00,
2013-02-07 09:59:00,24.1,20.5,30.11,North,360,3.5,4.6,86,0.00,OVC,,0.00,WeatherDisplay:10.37,2013-02-07 15:59:00,
2013-02-07 10:04:00,24.3,20.7,30.11,NNE,22,4.7,5.8,86,0.00,OVC,,0.00,WeatherDisplay:10.37,2013-02-07 16:04:00,
2013-02-07 10:09:00,24.8,20.9,30.12,NNE,22,2.5,3.5,85,0.00,OVC,,0.00,WeatherDisplay:10.37,2013-02-07 16:09:00,
2013-02-07 10:14:00,24.8,20.9,30.12,NNE,22,2.0,3.5,85,0.00,OVC,,0.00,WeatherDisplay:10.37,2013-02-07 16:14:00,
2013-02-07 10:20:00,24.8,20.7,30.12,NNE,22,2.7,3.5,84,0.00,OVC,,0.00,WeatherDisplay:10.37,2013-02-07 16:20:00,
2013-02-07 10:25:00,25.0,20.8,30.12,North,360,3.3,3.7,84,0.00,OVC,,0.00,WeatherDisplay:10.37,2013-02-07 16:25:00,
2013-02-07 10:30:00,25.0,20.8,30.12,North,360,2.6,4.6,84,0.00,OVC,,0.00,WeatherDisplay:10.37,2013-02-07 16:30:00,
2013-02-07 10:35:00,24.6,20.5,30.12,North,360,2.5,3.5,84,0.00,OVC,,0.00,WeatherDisplay:10.37,2013-02-07 16:35:00,
2013-02-07 10:40:00,24.4,20.5,30.12,East,90,3.3,5.8,85,0.00,OVC,,0.00,WeatherDisplay:10.37,2013-02-07 16:40:00,
2013-02-07 10:45:00,24.4,20.5,30.12,NE,45,3.9,4.6,85,0.00,OVC,,0.00,WeatherDisplay:10.37,2013-02-07 16:45:00,
2013-02-07 10:50:00,24.4,20.5,30.12,North,360,3.7,3.7,85,0.00,OVC,,0.00,WeatherDisplay:10.37,2013-02-07 16:50:00,
2013-02-07 10:55:00,24.4,20.5,30.12,NNE,22,3.7,6.9,85,0.00,OVC,,0.00,WeatherDisplay:10.37,2013-02-07 16:55:00,
2013-02-07 11:00:00,24.4,20.5,30.12,NNE,22,3.9,4.7,85,0.00,OVC,,0.00,WeatherDisplay:10.37,2013-02-07 17:00:00,
2013-02-07 11:05:00,24.6,20.7,30.12,NNE,22,2.2,3.5,85,0.00,OVC,,0.00,WeatherDisplay:10.37,2013-02-07 17:05:00,
2013-02-07 11:11:00,24.6,21.0,30.13,NNE,22,2.2,3.5,86,0.00,OVC,,0.00,WeatherDisplay:10.37,2013-02-07 17:11:00,
2013-02-07 11:16:00,24.6,21.3,30.13,NNE,22,3.0,4.6,87,0.00,OVC,,0.00,WeatherDisplay:10.37,2013-02-07 17:16:00,
2013-02-07 11:21:00,24.8,21.5,30.13,North,360,2.6,3.5,87,0.00,OVC,,0.00,WeatherDisplay:10.37,2013-02-07 17:21:00,
2013-02-07 11:26:00,24.8,21.5,30.13,North,360,3.1,4.6,87,0.00,OVC,,0.00,WeatherDisplay:10.37,2013-02-07 17:26:00,
2013-02-07 11:31:00,24.8,21.5,30.13,NNE,22,3.3,5.8,87,0.00,OVC,,0.00,WeatherDisplay:10.37,2013-02-07 17:31:00,
2013-02-07 11:36:00,25.2,21.9,30.13,East,90,5.8,6.8,87,0.00,OVC,,0.00,WeatherDisplay:10.37,2013-02-07 17:36:00,
2013-02-07 11:41:00,25.2,21.9,30.13,North,360,4.2,5.8,87,0.00,OVC,,0.00,WeatherDisplay:10.37,2013-02-07 17:41:00,
2013-02-07 11:46:00,25.2,21.9,30.14,East,90,4.8,8.1,87,0.00,OVC,,0.00,WeatherDisplay:10.37,2013-02-07 17:46:00,
2013-02-07 11:51:00,25.3,22.0,30.14,NNE,22,3.5,4.6,87,0.00,OVC,,0.00,WeatherDisplay:10.37,2013-02-07 17:51:00,
2013-02-07 11:56:00,25.3,22.0,30.13,NE,45,4.5,4.5,87,0.00,OVC,,0.00,WeatherDisplay:10.37,2013-02-07 17:56:00,
2013-02-07 12:02:00,25.5,22.2,30.13,North,360,4.4,5.8,87,0.00,OVC,,0.00,WeatherDisplay:10.37,2013-02-07 18:02:00,
2013-02-07 12:07:00,25.5,21.9,30.13,NE,45,4.4,5.8,86,0.00,OVC,,0.00,WeatherDisplay:10.37,2013-02-07 18:07:00,
2013-02-07 12:12:00,25.7,22.1,30.12,NNW,338,3.0,3.5,86,0.00,OVC,,0.00,WeatherDisplay:10.37,2013-02-07 18:12:00,
2013-02-07 12:17:00,25.5,21.9,30.12,East,90,5.0,8.1,86,0.00,OVC,,0.00,WeatherDisplay:10.37,2013-02-07 18:17:00,
2013-02-07 12:22:00,25.9,22.0,30.13,NNE,22,4.4,5.8,85,0.00,OVC,,0.00,WeatherDisplay:10.37,2013-02-07 18:22:00,
2013-02-07 12:27:00,26.1,22.2,30.13,NE,45,3.9,4.7,85,0.00,OVC,,0.00,WeatherDisplay:10.37,2013-02-07 18:27:00,
2013-02-07 12:32:00,26.1,22.2,30.13,NNW,338,3.5,4.7,85,0.00,OVC,,0.00,WeatherDisplay:10.37,2013-02-07 18:32:00,
2013-02-07 12:37:00,26.1,21.9,30.13,NNE,22,4.3,6.3,84,0.00,OVC,,0.00,WeatherDisplay:10.37,2013-02-07 18:37:00,
2013-02-07 12:42:00,26.1,21.9,30.13,North,360,3.7,5.8,84,0.00,OVC,,0.00,WeatherDisplay:10.37,2013-02-07 18:42:00,
2013-02-07 12:47:00,26.4,21.9,30.12,NE,45,4.4,5.8,83,0.00,OVC,,0.00,WeatherDisplay:10.37,2013-02-07 18:47:00,
2013-02-07 12:53:00,26.4,21.7,30.12,NE,45,5.8,6.9,82,0.00,OVC,,0.00,WeatherDisplay:10.37,2013-02-07 18:53:00,
2013-02-07 12:58:00,26.6,21.6,30.12,NE,45,2.0,4.6,81,0.00,OVC,,0.00,WeatherDisplay:10.37,2013-02-07 18:58:00,
2013-02-07 13:03:00,27.0,21.7,30.12,North,360,3.2,5.8,80,0.00,OVC,,0.00,WeatherDisplay:10.37,2013-02-07 19:03:00,
2013-02-07 13:08:00,27.1,21.5,30.12,North,360,2.6,4.7,79,0.00,OVC,,0.00,WeatherDisplay:10.37,2013-02-07 19:08:00,
2013-02-07 13:13:00,27.1,21.5,30.12,NNE,22,4.5,5.8,79,0.00,OVC,,0.00,WeatherDisplay:10.37,2013-02-07 19:13:00,
2013-02-07 13:18:00,27.3,21.3,30.12,North,360,5.8,9.2,78,0.00,OVC,,0.00,WeatherDisplay:10.37,2013-02-07 19:18:00,
2013-02-07 13:23:00,27.7,21.4,30.11,NNE,22,3.8,5.8,77,0.00,OVC,,0.00,WeatherDisplay:10.37,2013-02-07 19:23:00,
2013-02-07 13:28:00,27.7,21.1,30.11,NNE,22,4.6,6.9,76,0.00,OVC,,0.00,WeatherDisplay:10.37,2013-02-07 19:28:00,
2013-02-07 13:33:00,27.7,21.1,30.11,NNE,22,4.6,5.8,76,0.00,OVC,,0.00,WeatherDisplay:10.37,2013-02-07 19:33:00,
2013-02-07 13:39:00,27.3,20.7,30.11,NNE,22,3.9,4.7,76,0.00,OVC,,0.00,WeatherDisplay:10.37,2013-02-07 19:39:00,
2013-02-07 13:44:00,27.7,20.8,30.11,East,90,4.4,5.8,75,0.00,OVC,,0.00,WeatherDisplay:10.37,2013-02-07 19:44:00,
2013-02-07 13:49:00,27.7,20.8,30.11,NE,45,4.0,4.6,75,0.00,OVC,,0.00,WeatherDisplay:10.37,2013-02-07 19:49:00,
2013-02-07 13:54:00,28.0,20.5,30.11,North,360,2.7,3.5,73,0.00,OVC,,0.00,WeatherDisplay:10.37,2013-02-07 19:54:00,
2013-02-07 13:59:00,28.2,20.7,30.10,NNE,22,4.0,4.6,73,0.00,OVC,,0.00,WeatherDisplay:10.37,2013-02-07 19:59:00,
2013-02-07 14:04:00,28.0,20.5,30.10,NNE,22,5.5,8.1,73,0.00,OVC,,0.00,WeatherDisplay:10.37,2013-02-07 20:04:00,
2013-02-07 14:09:00,28.2,20.3,30.11,NE,45,4.2,4.6,72,0.00,OVC,,0.00,WeatherDisplay:10.37,2013-02-07 20:09:00,
2013-02-07 14:14:00,28.6,20.7,30.11,NNE,22,3.3,4.6,72,0.00,OVC,,0.00,WeatherDisplay:10.37,2013-02-07 20:14:00,
2013-02-07 14:19:00,28.4,20.5,30.11,NNE,22,3.6,4.6,72,0.00,OVC,,0.00,WeatherDisplay:10.37,2013-02-07 20:19:00,
2013-02-07 14:24:00,28.2,20.3,30.11,NNW,338,3.8,4.7,72,0.00,OVC,,0.00,WeatherDisplay:10.37,2013-02-07 20:24:00,
2013-02-07 14:30:00,28.6,20.7,30.11,NE,45,2.2,5.8,72,0.00,OVC,,0.00,WeatherDisplay:10.37,2013-02-07 20:30:00,
2013-02-07 14:35:00,28.4,20.2,30.11,NE,45,4.9,6.9,71,0.00,OVC,,0.00,WeatherDisplay:10.37,2013-02-07 20:35:00,
2013-02-07 14:40:00,28.6,20.4,30.11,ENE,68,3.3,4.7,71,0.00,OVC,,0.00,WeatherDisplay:10.37,2013-02-07 20:40:00,
2013-02-07 14:45:00,28.9,20.3,30.11,ENE,68,2.7,3.7,70,0.00,OVC,,0.00,WeatherDisplay:10.37,2013-02-07 20:45:00,
2013-02-07 14:50:00,28.8,20.2,30.11,North,360,2.6,3.5,70,0.00,OVC,,0.00,WeatherDisplay:10.37,2013-02-07 20:50:00,
2013-02-07 14:55:00,28.9,20.0,30.11,NNE,22,3.0,3.7,69,0.00,OVC,,0.00,WeatherDisplay:10.37,2013-02-07 20:55:00,
2013-02-07 15:00:00,28.8,19.9,30.11,NNE,22,3.9,5.8,69,0.00,OVC,,0.00,WeatherDisplay:10.37,2013-02-07 21:00:00,
2013-02-07 15:05:00,28.6,19.7,30.11,ENE,68,5.7,9.2,69,0.00,OVC,,0.00,WeatherDisplay:10.37,2013-02-07 21:05:00,
2013-02-07 15:10:00,28.6,19.7,30.12,NNE,22,3.7,4.7,69,0.00,OVC,,0.00,WeatherDisplay:10.37,2013-02-07 21:10:00,
2013-02-07 15:15:00,28.6,19.7,30.12,NE,45,6.0,6.0,69,0.00,OVC,,0.00,WeatherDisplay:10.37,2013-02-07 21:15:00,
2013-02-07 15:21:00,28.2,19.3,30.12,ENE,68,3.4,6.9,69,0.00,OVC,,0.00,WeatherDisplay:10.37,2013-02-07 21:21:00,
2013-02-07 15:26:00,28.2,19.7,30.12,NNE,22,5.2,6.9,70,0.00,OVC,,0.00,WeatherDisplay:10.37,2013-02-07 21:26:00,
2013-02-07 15:31:00,28.2,19.7,30.12,North,360,2.3,2.7,70,0.00,OVC,,0.00,WeatherDisplay:10.37,2013-02-07 21:31:00,
2013-02-07 15:36:00,28.2,19.7,30.13,NNE,22,4.5,6.9,70,0.00,OVC,,0.00,WeatherDisplay:10.37,2013-02-07 21:36:00,
2013-02-07 15:41:00,28.2,19.7,30.13,NE,45,5.0,6.3,70,0.00,OVC,,0.00,WeatherDisplay:10.37,2013-02-07 21:41:00,
2013-02-07 15:46:00,28.0,19.5,30.13,North,360,4.2,4.6,70,0.00,OVC,,0.00,WeatherDisplay:10.37,2013-02-07 21:46:00,
2013-02-07 15:51:00,28.2,20.0,30.13,North,360,3.0,3.5,71,0.00,OVC,,0.00,WeatherDisplay:10.37,2013-02-07 21:51:00,
2013-02-07 15:56:00,28.2,19.7,30.13,NNE,22,4.8,6.8,70,0.00,OVC,,0.00,WeatherDisplay:10.37,2013-02-07 21:56:00,
2013-02-07 16:01:00,28.0,19.5,30.14,North,360,3.6,7.3,70,0.00,OVC,,0.00,WeatherDisplay:10.37,2013-02-07 22:01:00,
2013-02-07 16:06:00,28.0,19.5,30.14,North,360,3.4,3.5,70,0.00,OVC,,0.00,WeatherDisplay:10.37,2013-02-07 22:06:00,
2013-02-07 16:12:00,28.0,19.5,30.14,North,360,4.7,5.8,70,0.00,OVC,,0.00,WeatherDisplay:10.37,2013-02-07 22:12:00,
2013-02-07 16:17:00,28.0,19.5,30.14,NNE,22,2.5,5.8,70,0.00,OVC,,0.00,WeatherDisplay:10.37,2013-02-07 22:17:00,
2013-02-07 16:22:00,27.9,19.4,30.15,NNW,338,4.0,5.8,70,0.00,OVC,,0.00,WeatherDisplay:10.37,2013-02-07 22:22:00,
2013-02-07 16:27:00,27.7,19.2,30.15,North,360,3.2,5.8,70,0.00,OVC,,0.00,WeatherDisplay:10.37,2013-02-07 22:27:00,
2013-02-07 16:32:00,27.7,19.2,30.15,North,360,3.3,4.6,70,0.00,OVC,,0.00,WeatherDisplay:10.37,2013-02-07 22:32:00,
2013-02-07 16:37:00,27.5,19.3,30.15,North,360,4.0,6.9,71,0.00,OVC,,0.00,WeatherDisplay:10.37,2013-02-07 22:37:00,
2013-02-07 16:42:00,27.5,19.3,30.15,North,360,2.8,4.6,71,0.00,OVC,,0.00,WeatherDisplay:10.37,2013-02-07 22:42:00,
2013-02-07 16:47:00,27.5,19.3,30.16,North,360,3.1,3.7,71,0.00,OVC,,0.00,WeatherDisplay:10.37,2013-02-07 22:47:00,
2013-02-07 16:52:00,27.3,19.5,30.16,NNW,338,2.6,3.5,72,0.00,OVC,,0.00,WeatherDisplay:10.37,2013-02-07 22:52:00,
2013-02-07 16:57:00,27.1,19.6,30.16,North,360,2.9,3.7,73,0.00,OVC,,0.00,WeatherDisplay:10.37,2013-02-07 22:57:00,
2013-02-07 17:03:00,27.1,19.6,30.16,North,360,5.1,5.8,73,0.00,OVC,,0.00,WeatherDisplay:10.37,2013-02-07 23:03:00,
2013-02-07 17:08:00,27.0,19.8,30.16,North,360,3.8,5.8,74,0.00,OVC,,0.00,WeatherDisplay:10.37,2013-02-07 23:08:00,
2013-02-07 17:13:00,26.8,19.6,30.15,NNE,22,3.2,4.6,74,0.00,OVC,,0.00,WeatherDisplay:10.37,2013-02-07 23:13:00,
2013-02-07 17:18:00,26.8,19.6,30.15,North,360,3.7,4.6,74,0.00,OVC,,0.00,WeatherDisplay:10.37,2013-02-07 23:18:00,
2013-02-07 17:23:00,26.6,19.7,30.16,North,360,4.1,6.9,75,0.00,OVC,,0.00,WeatherDisplay:10.37,2013-02-07 23:23:00,
2013-02-07 17:28:00,26.6,19.7,30.16,North,360,2.8,3.5,75,0.00,OVC,,0.00,WeatherDisplay:10.37,2013-02-07 23:28:00,
2013-02-07 17:33:00,26.4,19.9,30.17,NNE,22,1.9,3.5,76,0.00,OVC,,0.00,WeatherDisplay:10.37,2013-02-07 23:33:00,
2013-02-07 17:38:00,26.4,19.9,30.17,NNE,22,4.0,5.8,76,0.00,OVC,,0.00,WeatherDisplay:10.37,2013-02-07 23:38:00,
2013-02-07 17:43:00,26.4,19.9,30.17,NNE,22,3.3,5.8,76,0.00,OVC,,0.00,WeatherDisplay:10.37,2013-02-07 23:43:00,
2013-02-07 17:48:00,26.4,19.9,30.17,NNE,22,3.1,5.8,76,0.00,OVC,,0.00,WeatherDisplay:10.37,2013-02-07 23:48:00,
2013-02-07 17:54:00,26.4,19.9,30.17,NNE,22,3.2,3.5,76,0.00,OVC,,0.00,WeatherDisplay:10.37,2013-02-07 23:54:00,
2013-02-07 17:59:00,26.2,20.0,30.18,North,360,2.1,2.7,77,0.00,OVC,,0.00,WeatherDisplay:10.37,2013-02-07 23:59:00,
2013-02-07 18:04:00,26.2,20.0,30.18,North,360,3.8,4.7,77,0.00,OVC,,0.00,WeatherDisplay:10.37,2013-02-08 00:04:00,
2013-02-07 18:09:00,26.2,20.0,30.18,NNE,22,2.8,3.5,77,0.00,OVC,,0.00,WeatherDisplay:10.37,2013-02-08 00:09:00,
2013-02-07 18:14:00,26.2,20.3,30.18,NNE,22,0.7,2.3,78,0.00,OVC,,0.00,WeatherDisplay:10.37,2013-02-08 00:14:00,
2013-02-07 18:19:00,26.1,20.2,30.18,NNE,22,2.9,5.3,78,0.00,OVC,,0.00,WeatherDisplay:10.37,2013-02-08 00:19:00,
2013-02-07 18:24:00,26.1,20.2,30.18,North,360,4.7,5.8,78,0.00,OVC,,0.00,WeatherDisplay:10.37,2013-02-08 00:24:00,
2013-02-07 18:29:00,26.1,20.2,30.18,NNW,338,3.1,6.9,78,0.00,OVC,,0.00,WeatherDisplay:10.37,2013-02-08 00:29:00,
2013-02-07 18:34:00,26.1,20.2,30.18,North,360,3.6,6.8,78,0.00,OVC,,0.00,WeatherDisplay:10.37,2013-02-08 00:34:00,
2013-02-07 18:39:00,26.1,20.2,30.18,North,360,3.7,3.7,78,0.00,OVC,,0.00,WeatherDisplay:10.37,2013-02-08 00:39:00,
2013-02-07 18:45:00,26.1,20.2,30.18,North,360,3.7,3.7,78,0.00,OVC,,0.00,WeatherDisplay:10.37,2013-02-08 00:45:00,
2013-02-07 18:50:00,26.1,20.2,30.19,North,360,3.7,3.7,78,0.00,OVC,,0.00,WeatherDisplay:10.37,2013-02-08 00:50:00,
2013-02-07 18:55:00,26.1,20.2,30.19,North,360,3.7,3.7,78,0.00,OVC,,0.00,WeatherDisplay:10.37,2013-02-08 00:55:00,
2013-02-07 19:00:00,26.1,20.2,30.19,North,360,3.7,3.7,78,0.00,OVC,,0.00,WeatherDisplay:10.37,2013-02-08 01:00:00,
2013-02-07 19:05:00,26.1,20.2,30.19,North,360,3.7,3.7,78,0.00,OVC,,0.00,WeatherDisplay:10.37,2013-02-08 01:05:00,
2013-02-07 19:10:00,26.1,20.2,30.19,North,360,3.7,3.7,78,0.00,OVC,,0.00,WeatherDisplay:10.37,2013-02-08 01:10:00,
2013-02-07 19:15:00,26.1,20.2,30.19,North,360,3.7,3.7,78,0.00,OVC,,0.00,WeatherDisplay:10.37,2013-02-08 01:15:00,
2013-02-07 19:21:00,25.9,20.6,30.20,North,360,2.3,3.5,80,0.00,OVC,,0.00,WeatherDisplay:10.37,2013-02-08 01:21:00,
2013-02-07 19:26:00,25.7,20.4,30.20,North,360,2.3,4.6,80,0.00,OVC,,0.00,WeatherDisplay:10.37,2013-02-08 01:26:00,
2013-02-07 19:31:00,25.7,20.4,30.20,North,360,3.5,4.6,80,0.00,OVC,,0.00,WeatherDisplay:10.37,2013-02-08 01:31:00,
2013-02-07 19:36:00,25.7,20.4,30.21,NNE,22,2.6,4.6,80,0.00,OVC,,0.00,WeatherDisplay:10.37,2013-02-08 01:36:00,
2013-02-07 19:41:00,25.7,20.1,30.21,NNE,22,3.3,9.2,79,0.00,OVC,,0.00,WeatherDisplay:10.37,2013-02-08 01:41:00,
2013-02-07 19:46:00,25.7,20.1,30.21,North,360,4.7,6.9,79,0.00,OVC,,0.00,WeatherDisplay:10.37,2013-02-08 01:46:00,
2013-02-07 19:51:00,25.7,20.1,30.21,North,360,3.5,4.6,79,0.00,OVC,,0.00,WeatherDisplay:10.37,2013-02-08 01:51:00,
2013-02-07 19:56:00,25.5,19.9,30.21,NNE,22,2.9,3.2,79,0.00,OVC,,0.00,WeatherDisplay:10.37,2013-02-08 01:56:00,
2013-02-07 20:01:00,25.5,19.9,30.22,NNE,22,2.4,4.6,79,0.00,OVC,,0.00,WeatherDisplay:10.37,2013-02-08 02:01:00,
2013-02-07 20:06:00,25.5,19.9,30.22,NNE,22,3.7,3.7,79,0.00,OVC,,0.00,WeatherDisplay:10.37,2013-02-08 02:06:00,
2013-02-07 20:12:00,25.5,19.9,30.21,NNE,22,3.4,5.8,79,0.00,OVC,,0.00,WeatherDisplay:10.37,2013-02-08 02:12:00,
2013-02-07 20:17:00,25.5,19.9,30.21,NNE,22,3.1,5.8,79,0.00,OVC,,0.00,WeatherDisplay:10.37,2013-02-08 02:17:00,
2013-02-07 20:22:00,25.3,19.7,30.22,North,360,2.9,4.7,79,0.00,OVC,,0.00,WeatherDisplay:10.37,2013-02-08 02:22:00,
2013-02-07 20:27:00,25.3,19.7,30.22,NNE,22,2.6,3.5,79,0.00,OVC,,0.00,WeatherDisplay:10.37,2013-02-08 02:27:00,
2013-02-07 20:32:00,25.3,19.7,30.22,North,360,5.5,6.9,79,0.00,OVC,,0.00,WeatherDisplay:10.37,2013-02-08 02:32:00,
2013-02-07 20:37:00,25.3,19.7,30.21,NNE,22,1.6,2.7,79,0.00,OVC,,0.00,WeatherDisplay:10.37,2013-02-08 02:37:00,
2013-02-07 20:42:00,25.3,19.7,30.21,NNE,22,2.0,2.3,79,0.00,OVC,,0.00,WeatherDisplay:10.37,2013-02-08 02:42:00,
2013-02-07 20:47:00,25.2,19.6,30.21,NNE,22,4.1,5.8,79,0.00,OVC,,0.00,WeatherDisplay:10.37,2013-02-08 02:47:00,
2013-02-07 20:52:00,25.2,19.6,30.21,NNE,22,3.1,4.6,79,0.00,OVC,,0.00,WeatherDisplay:10.37,2013-02-08 02:52:00,
2013-02-07 20:57:00,25.2,19.6,30.22,NNE,22,3.2,4.6,79,0.00,OVC,,0.00,WeatherDisplay:10.37,2013-02-08 02:57:00,
2013-02-07 21:03:00,25.0,19.4,30.22,NNE,22,2.5,2.5,79,0.00,OVC,,0.00,WeatherDisplay:10.37,2013-02-08 03:03:00,
2013-02-07 21:08:00,25.0,19.7,30.22,North,360,2.6,5.8,80,0.00,OVC,,0.00,WeatherDisplay:10.37,2013-02-08 03:08:00,
2013-02-07 21:13:00,25.0,19.7,30.22,NNE,22,2.9,4.6,80,0.00,OVC,,0.00,WeatherDisplay:10.37,2013-02-08 03:13:00,
2013-02-07 21:18:00,25.0,19.7,30.22,NNE,22,1.6,2.7,80,0.00,OVC,,0.00,WeatherDisplay:10.37,2013-02-08 03:18:00,
2013-02-07 21:23:00,24.8,19.5,30.22,NNE,22,2.6,3.5,80,0.00,OVC,,0.00,WeatherDisplay:10.37,2013-02-08 03:23:00,
2013-02-07 21:28:00,24.8,19.5,30.22,North,360,0.9,2.3,80,0.00,OVC,,0.00,WeatherDisplay:10.37,2013-02-08 03:28:00,
2013-02-07 21:33:00,24.8,19.5,30.23,NNE,22,2.3,3.5,80,0.00,OVC,,0.00,WeatherDisplay:10.37,2013-02-08 03:33:00,
2013-02-07 21:38:00,24.8,19.5,30.23,North,360,2.3,4.6,80,0.00,OVC,,0.00,WeatherDisplay:10.37,2013-02-08 03:38:00,
2013-02-07 21:43:00,24.6,19.6,30.23,NNW,338,3.0,4.2,81,0.00,OVC,,0.00,WeatherDisplay:10.37,2013-02-08 03:43:00,
2013-02-07 21:48:00,24.6,19.6,30.22,North,360,3.6,3.7,81,0.00,OVC,,0.00,WeatherDisplay:10.37,2013-02-08 03:48:00,
2013-02-07 21:54:00,24.6,19.6,30.22,NNE,22,2.6,3.5,81,0.00,OVC,,0.00,WeatherDisplay:10.37,2013-02-08 03:54:00,
2013-02-07 21:59:00,24.6,19.6,30.23,NNE,22,3.0,5.8,81,0.00,OVC,,0.00,WeatherDisplay:10.37,2013-02-08 03:59:00,
2013-02-07 22:04:00,24.4,19.4,30.23,NNE,22,2.5,3.7,81,0.00,OVC,,0.00,WeatherDisplay:10.37,2013-02-08 04:04:00,
2013-02-07 22:09:00,24.4,19.4,30.24,NNW,338,2.9,4.6,81,0.00,OVC,,0.00,WeatherDisplay:10.37,2013-02-08 04:09:00,
2013-02-07 22:14:00,24.4,19.1,30.24,North,360,5.1,6.9,80,0.00,OVC,,0.00,WeatherDisplay:10.37,2013-02-08 04:14:00,
2013-02-07 22:19:00,24.4,19.1,30.24,North,360,2.9,3.5,80,0.00,OVC,,0.00,WeatherDisplay:10.37,2013-02-08 04:19:00,
2013-02-07 22:24:00,24.4,19.1,30.24,North,360,3.1,3.5,80,0.00,OVC,,0.00,WeatherDisplay:10.37,2013-02-08 04:24:00,
2013-02-07 22:29:00,24.4,19.1,30.24,North,360,3.4,4.6,80,0.00,OVC,,0.00,WeatherDisplay:10.37,2013-02-08 04:29:00,
2013-02-07 22:34:00,24.4,19.1,30.24,North,360,3.2,3.7,80,0.00,OVC,,0.00,WeatherDisplay:10.37,2013-02-08 04:34:00,
2013-02-07 22:39:00,24.3,19.0,30.24,North,360,2.6,2.7,80,0.00,OVC,,0.00,WeatherDisplay:10.37,2013-02-08 04:39:00,
2013-02-07 22:45:00,24.3,19.0,30.24,North,360,1.9,5.3,80,0.00,OVC,,0.00,WeatherDisplay:10.37,2013-02-08 04:45:00,
2013-02-07 22:50:00,24.3,19.0,30.24,North,360,4.3,5.8,80,0.00,OVC,,0.00,WeatherDisplay:10.37,2013-02-08 04:50:00,
2013-02-07 22:55:00,24.3,19.0,30.24,North,360,3.2,3.7,80,0.00,OVC,,0.00,WeatherDisplay:10.37,2013-02-08 04:55:00,
2013-02-07 23:00:00,24.3,19.0,30.24,NNE,22,4.3,6.3,80,0.00,OVC,,0.00,WeatherDisplay:10.37,2013-02-08 05:00:00,
2013-02-07 23:01:00,24.3,19.0,30.24,NNE,22,1.2,5.8,80,0.00,OVC,,0.00,WeatherDisplay:10.37,2013-02-08 05:01:00,
2013-02-07 23:06:00,24.1,18.8,30.24,North,360,2.2,4.6,80,0.00,OVC,,0.00,WeatherDisplay:10.37,2013-02-08 05:06:00,
2013-02-07 23:11:00,24.1,18.8,30.25,North,360,2.8,4.6,80,0.00,OVC,,0.00,WeatherDisplay:10.37,2013-02-08 05:11:00,
2013-02-07 23:16:00,23.9,18.6,30.25,NNW,338,3.7,3.7,80,0.00,OVC,,0.00,WeatherDisplay:10.37,2013-02-08 05:16:00,
2013-02-07 23:21:00,23.9,18.9,30.24,North,360,2.1,2.3,81,0.00,OVC,,0.00,WeatherDisplay:10.37,2013-02-08 05:21:00,
2013-02-07 23:27:00,23.9,18.9,30.24,North,360,2.8,3.5,81,0.00,OVC,,0.00,WeatherDisplay:10.37,2013-02-08 05:27:00,
2013-02-07 23:32:00,23.7,18.7,30.24,North,360,3.0,4.6,81,0.00,OVC,,0.00,WeatherDisplay:10.37,2013-02-08 05:32:00,
2013-02-07 23:37:00,23.7,18.7,30.25,North,360,2.3,2.7,81,0.00,OVC,,0.00,WeatherDisplay:10.37,2013-02-08 05:37:00,
2013-02-07 23:42:00,23.7,18.7,30.25,North,360,1.7,1.7,81,0.00,OVC,,0.00,WeatherDisplay:10.37,2013-02-08 05:42:00,
2013-02-07 23:47:00,23.7,18.7,30.25,North,360,1.7,1.7,81,0.00,OVC,,0.00,WeatherDisplay:10.37,2013-02-08 05:47:00,
2013-02-07 23:52:00,23.7,18.7,30.25,North,360,1.7,1.7,81,0.00,OVC,,0.00,WeatherDisplay:10.37,2013-02-08 05:52:00,
2013-02-07 23:57:00,23.7,18.7,30.25,North,360,1.7,1.7,81,0.00,OVC,,0.00,WeatherDisplay:10.37,2013-02-08 05:57:00,